sensor_id;sensor_type;location;lat;lon;timestamp;temperature;humidity
65369;HTU21D;51970;53.484;49.488;2023-03-17T00:00:37;6.09;61.28
65369;HTU21D;51970;53.484;49.488;2023-03-17T00:03:04;6.14;61.24
65369;HTU21D;51970;53.484;49.488;2023-03-17T00:05:34;6.17;61.02
65369;HTU21D;51970;53.484;49.488;2023-03-17T00:08:13;6.12;61.15
65369;HTU21D;51970;53.484;49.488;2023-03-17T00:10:40;6.13;61.05
65369;HTU21D;51970;53.484;49.488;2023-03-17T00:13:09;6.11;61.17
65369;HTU21D;51970;53.484;49.488;2023-03-17T00:15:37;6.05;61.32
65369;HTU21D;51970;53.484;49.488;2023-03-17T00:18:03;5.96;61.70
65369;HTU21D;51970;53.484;49.488;2023-03-17T00:20:31;5.92;61.86
65369;HTU21D;51970;53.484;49.488;2023-03-17T00:22:58;5.94;61.70
65369;HTU21D;51970;53.484;49.488;2023-03-17T00:25:28;5.93;61.75
65369;HTU21D;51970;53.484;49.488;2023-03-17T00:27:56;5.89;62.02
65369;HTU21D;51970;53.484;49.488;2023-03-17T00:30:26;5.86;62.02
65369;HTU21D;51970;53.484;49.488;2023-03-17T00:32:55;6.00;61.72
65369;HTU21D;51970;53.484;49.488;2023-03-17T00:35:23;5.95;61.82
65369;HTU21D;51970;53.484;49.488;2023-03-17T00:37:51;5.89;61.94
65369;HTU21D;51970;53.484;49.488;2023-03-17T00:40:24;5.81;62.37
65369;HTU21D;51970;53.484;49.488;2023-03-17T00:42:52;5.74;62.53
65369;HTU21D;51970;53.484;49.488;2023-03-17T00:45:19;5.69;62.87
65369;HTU21D;51970;53.484;49.488;2023-03-17T00:47:49;5.67;62.79
65369;HTU21D;51970;53.484;49.488;2023-03-17T00:50:18;5.66;62.92
65369;HTU21D;51970;53.484;49.488;2023-03-17T00:52:48;5.75;62.51
65369;HTU21D;51970;53.484;49.488;2023-03-17T00:55:16;5.86;62.12
65369;HTU21D;51970;53.484;49.488;2023-03-17T00:57:42;5.82;61.99
65369;HTU21D;51970;53.484;49.488;2023-03-17T01:00:28;5.70;62.25
65369;HTU21D;51970;53.484;49.488;2023-03-17T01:02:55;5.69;62.50
65369;HTU21D;51970;53.484;49.488;2023-03-17T01:05:23;5.66;62.41
65369;HTU21D;51970;53.484;49.488;2023-03-17T01:07:53;5.65;62.47
65369;HTU21D;51970;53.484;49.488;2023-03-17T01:10:25;5.61;62.68
65369;HTU21D;51970;53.484;49.488;2023-03-17T01:12:55;5.54;62.83
65369;HTU21D;51970;53.484;49.488;2023-03-17T01:15:28;5.52;62.82
65369;HTU21D;51970;53.484;49.488;2023-03-17T01:18:00;5.57;63.03
65369;HTU21D;51970;53.484;49.488;2023-03-17T01:20:30;5.56;62.74
65369;HTU21D;51970;53.484;49.488;2023-03-17T01:22:58;5.55;62.60
65369;HTU21D;51970;53.484;49.488;2023-03-17T01:25:25;5.47;63.00
65369;HTU21D;51970;53.484;49.488;2023-03-17T01:27:54;5.48;62.95
65369;HTU21D;51970;53.484;49.488;2023-03-17T01:30:24;5.41;63.11
65369;HTU21D;51970;53.484;49.488;2023-03-17T01:32:52;5.41;63.02
65369;HTU21D;51970;53.484;49.488;2023-03-17T01:35:19;5.38;63.16
65369;HTU21D;51970;53.484;49.488;2023-03-17T01:37:45;5.43;63.08
65369;HTU21D;51970;53.484;49.488;2023-03-17T01:40:27;5.41;63.10
65369;HTU21D;51970;53.484;49.488;2023-03-17T01:48:40;5.32;63.25
65369;HTU21D;51970;53.484;49.488;2023-03-17T01:51:12;5.32;63.40
65369;HTU21D;51970;53.484;49.488;2023-03-17T01:53:40;5.31;63.34
65369;HTU21D;51970;53.484;49.488;2023-03-17T01:56:06;5.32;63.39
65369;HTU21D;51970;53.484;49.488;2023-03-17T01:58:33;5.36;62.99
65369;HTU21D;51970;53.484;49.488;2023-03-17T02:00:59;5.36;63.05
65369;HTU21D;51970;53.484;49.488;2023-03-17T02:03:27;5.36;62.95
65369;HTU21D;51970;53.484;49.488;2023-03-17T02:05:55;5.38;62.82
65369;HTU21D;51970;53.484;49.488;2023-03-17T02:08:22;5.39;62.90
65369;HTU21D;51970;53.484;49.488;2023-03-17T02:10:49;5.42;62.84
65369;HTU21D;51970;53.484;49.488;2023-03-17T02:13:15;5.41;62.63
65369;HTU21D;51970;53.484;49.488;2023-03-17T02:15:49;5.48;62.36
65369;HTU21D;51970;53.484;49.488;2023-03-17T02:18:35;5.63;62.10
65369;HTU21D;51970;53.484;49.488;2023-03-17T02:21:32;5.50;62.31
65369;HTU21D;51970;53.484;49.488;2023-03-17T02:24:02;5.47;62.50
65369;HTU21D;51970;53.484;49.488;2023-03-17T02:26:32;5.41;62.44
65369;HTU21D;51970;53.484;49.488;2023-03-17T02:28:59;5.37;62.64
65369;HTU21D;51970;53.484;49.488;2023-03-17T02:31:26;5.38;62.70
65369;HTU21D;51970;53.484;49.488;2023-03-17T02:33:53;5.39;62.80
65369;HTU21D;51970;53.484;49.488;2023-03-17T02:36:22;5.40;62.66
65369;HTU21D;51970;53.484;49.488;2023-03-17T02:38:49;5.50;62.16
65369;HTU21D;51970;53.484;49.488;2023-03-17T02:41:15;5.49;62.27
65369;HTU21D;51970;53.484;49.488;2023-03-17T02:43:46;5.42;62.34
65369;HTU21D;51970;53.484;49.488;2023-03-17T02:46:13;5.42;62.37
65369;HTU21D;51970;53.484;49.488;2023-03-17T02:48:41;5.42;62.25
65369;HTU21D;51970;53.484;49.488;2023-03-17T02:51:08;5.57;61.88
65369;HTU21D;51970;53.484;49.488;2023-03-17T02:53:35;5.60;61.77
65369;HTU21D;51970;53.484;49.488;2023-03-17T02:56:02;5.59;61.76
65369;HTU21D;51970;53.484;49.488;2023-03-17T02:58:29;5.46;61.88
65369;HTU21D;51970;53.484;49.488;2023-03-17T03:01:02;5.51;61.76
65369;HTU21D;51970;53.484;49.488;2023-03-17T03:03:31;5.56;61.54
65369;HTU21D;51970;53.484;49.488;2023-03-17T03:05:59;5.64;61.21
65369;HTU21D;51970;53.484;49.488;2023-03-17T03:08:26;5.60;61.18
65369;HTU21D;51970;53.484;49.488;2023-03-17T03:10:54;5.63;61.25
65369;HTU21D;51970;53.484;49.488;2023-03-17T03:13:20;5.60;61.34
65369;HTU21D;51970;53.484;49.488;2023-03-17T03:15:54;5.70;61.28
65369;HTU21D;51970;53.484;49.488;2023-03-17T03:18:32;5.76;61.04
65369;HTU21D;51970;53.484;49.488;2023-03-17T03:21:27;5.89;60.31
65369;HTU21D;51970;53.484;49.488;2023-03-17T03:24:00;5.84;60.51
65369;HTU21D;51970;53.484;49.488;2023-03-17T03:26:26;5.86;60.82
65369;HTU21D;51970;53.484;49.488;2023-03-17T03:28:53;5.84;60.86
65369;HTU21D;51970;53.484;49.488;2023-03-17T03:31:55;5.79;60.76
65369;HTU21D;51970;53.484;49.488;2023-03-17T03:34:23;5.83;60.85
65369;HTU21D;51970;53.484;49.488;2023-03-17T03:37:08;5.90;60.73
65369;HTU21D;51970;53.484;49.488;2023-03-17T03:40:53;6.02;60.01
65369;HTU21D;51970;53.484;49.488;2023-03-17T03:44:22;6.14;60.09
65369;HTU21D;51970;53.484;49.488;2023-03-17T03:47:19;6.15;59.49
65369;HTU21D;51970;53.484;49.488;2023-03-17T03:49:53;6.16;59.51
65369;HTU21D;51970;53.484;49.488;2023-03-17T03:52:42;6.24;59.38
65369;HTU21D;51970;53.484;49.488;2023-03-17T03:55:18;6.37;58.87
65369;HTU21D;51970;53.484;49.488;2023-03-17T03:58:16;6.42;58.81
65369;HTU21D;51970;53.484;49.488;2023-03-17T04:00:47;6.51;58.69
65369;HTU21D;51970;53.484;49.488;2023-03-17T04:03:59;6.53;58.67
65369;HTU21D;51970;53.484;49.488;2023-03-17T04:07:11;6.65;57.97
65369;HTU21D;51970;53.484;49.488;2023-03-17T04:09:46;6.80;57.55
65369;HTU21D;51970;53.484;49.488;2023-03-17T04:12:24;7.02;56.92
65369;HTU21D;51970;53.484;49.488;2023-03-17T04:14:59;7.19;56.53
65369;HTU21D;51970;53.484;49.488;2023-03-17T04:17:51;7.17;56.73
65369;HTU21D;51970;53.484;49.488;2023-03-17T04:20:33;7.27;56.37
65369;HTU21D;51970;53.484;49.488;2023-03-17T04:23:40;7.33;55.97
65369;HTU21D;51970;53.484;49.488;2023-03-17T04:26:24;7.37;55.62
65369;HTU21D;51970;53.484;49.488;2023-03-17T04:29:17;7.44;55.81
65369;HTU21D;51970;53.484;49.488;2023-03-17T04:32:03;7.33;55.62
65369;HTU21D;51970;53.484;49.488;2023-03-17T04:34:48;7.29;55.78
65369;HTU21D;51970;53.484;49.488;2023-03-17T04:38:01;7.32;55.85
65369;HTU21D;51970;53.484;49.488;2023-03-17T04:40:57;7.28;56.11
65369;HTU21D;51970;53.484;49.488;2023-03-17T04:44:27;7.22;56.23
65369;HTU21D;51970;53.484;49.488;2023-03-17T04:47:10;7.28;56.11
65369;HTU21D;51970;53.484;49.488;2023-03-17T04:50:13;7.38;55.46
65369;HTU21D;51970;53.484;49.488;2023-03-17T04:56:04;7.16;55.78
65369;HTU21D;51970;53.484;49.488;2023-03-17T04:58:43;7.20;55.81
65369;HTU21D;51970;53.484;49.488;2023-03-17T05:01:17;7.37;55.32
65369;HTU21D;51970;53.484;49.488;2023-03-17T05:03:50;7.71;55.20
65369;HTU21D;51970;53.484;49.488;2023-03-17T05:06:43;7.45;54.92
65369;HTU21D;51970;53.484;49.488;2023-03-17T05:09:24;7.56;54.43
65369;HTU21D;51970;53.484;49.488;2023-03-17T05:12:08;7.50;54.44
65369;HTU21D;51970;53.484;49.488;2023-03-17T05:14:56;7.61;54.69
65369;HTU21D;51970;53.484;49.488;2023-03-17T05:17:31;7.79;53.91
65369;HTU21D;51970;53.484;49.488;2023-03-17T05:20:23;7.76;54.13
65369;HTU21D;51970;53.484;49.488;2023-03-17T05:23:18;7.73;53.66
65369;HTU21D;51970;53.484;49.488;2023-03-17T05:26:53;7.64;54.39
65369;HTU21D;51970;53.484;49.488;2023-03-17T05:29:26;7.47;54.62
65369;HTU21D;51970;53.484;49.488;2023-03-17T05:32:16;7.27;55.36
65369;HTU21D;51970;53.484;49.488;2023-03-17T05:35:18;7.27;55.45
65369;HTU21D;51970;53.484;49.488;2023-03-17T05:38:15;7.38;55.45
65369;HTU21D;51970;53.484;49.488;2023-03-17T05:41:44;7.48;55.29
65369;HTU21D;51970;53.484;49.488;2023-03-17T05:44:45;7.75;53.91
65369;HTU21D;51970;53.484;49.488;2023-03-17T05:47:26;7.93;53.75
65369;HTU21D;51970;53.484;49.488;2023-03-17T05:49:55;8.09;52.85
65369;HTU21D;51970;53.484;49.488;2023-03-17T05:52:22;8.24;52.46
65369;HTU21D;51970;53.484;49.488;2023-03-17T05:54:50;8.29;52.48
65369;HTU21D;51970;53.484;49.488;2023-03-17T05:57:52;8.43;52.35
65369;HTU21D;51970;53.484;49.488;2023-03-17T06:00:46;8.60;51.72
65369;HTU21D;51970;53.484;49.488;2023-03-17T06:03:45;8.73;51.21
65369;HTU21D;51970;53.484;49.488;2023-03-17T06:06:50;8.88;50.49
65369;HTU21D;51970;53.484;49.488;2023-03-17T06:09:39;8.89;50.28
65369;HTU21D;51970;53.484;49.488;2023-03-17T06:12:59;8.76;50.59
65369;HTU21D;51970;53.484;49.488;2023-03-17T06:15:47;8.76;51.02
65369;HTU21D;51970;53.484;49.488;2023-03-17T06:18:52;8.78;50.75
65369;HTU21D;51970;53.484;49.488;2023-03-17T06:22:21;8.83;50.66
65369;HTU21D;51970;53.484;49.488;2023-03-17T06:24:55;8.91;50.10
65369;HTU21D;51970;53.484;49.488;2023-03-17T06:27:23;9.07;49.81
65369;HTU21D;51970;53.484;49.488;2023-03-17T06:30:13;8.97;50.40
65369;HTU21D;51970;53.484;49.488;2023-03-17T06:32:41;9.00;49.95
65369;HTU21D;51970;53.484;49.488;2023-03-17T06:35:15;9.06;50.37
65369;HTU21D;51970;53.484;49.488;2023-03-17T06:37:48;9.22;49.65
65369;HTU21D;51970;53.484;49.488;2023-03-17T06:40:25;9.20;49.38
65369;HTU21D;51970;53.484;49.488;2023-03-17T06:43:05;9.20;49.25
65369;HTU21D;51970;53.484;49.488;2023-03-17T06:45:58;9.31;50.02
65369;HTU21D;51970;53.484;49.488;2023-03-17T06:49:03;9.48;49.53
65369;HTU21D;51970;53.484;49.488;2023-03-17T06:52:19;9.51;49.18
65369;HTU21D;51970;53.484;49.488;2023-03-17T06:55:54;9.64;48.79
65369;HTU21D;51970;53.484;49.488;2023-03-17T06:58:42;9.61;48.63
65369;HTU21D;51970;53.484;49.488;2023-03-17T07:01:49;9.55;49.07
65369;HTU21D;51970;53.484;49.488;2023-03-17T07:04:47;9.75;48.97
65369;HTU21D;51970;53.484;49.488;2023-03-17T07:08:26;9.60;48.79
65369;HTU21D;51970;53.484;49.488;2023-03-17T07:11:05;9.70;47.79
65369;HTU21D;51970;53.484;49.488;2023-03-17T07:14:13;9.62;48.56
65369;HTU21D;51970;53.484;49.488;2023-03-17T07:17:26;9.46;48.91
65369;HTU21D;51970;53.484;49.488;2023-03-17T07:20:27;9.42;49.47
65369;HTU21D;51970;53.484;49.488;2023-03-17T07:23:01;9.53;49.55
65369;HTU21D;51970;53.484;49.488;2023-03-17T07:25:58;9.88;48.60
65369;HTU21D;51970;53.484;49.488;2023-03-17T07:28:57;9.85;48.21
65369;HTU21D;51970;53.484;49.488;2023-03-17T07:31:40;9.77;48.67
65369;HTU21D;51970;53.484;49.488;2023-03-17T07:34:14;9.91;48.12
65369;HTU21D;51970;53.484;49.488;2023-03-17T07:36:48;10.01;47.47
65369;HTU21D;51970;53.484;49.488;2023-03-17T07:39:38;10.06;47.76
65369;HTU21D;51970;53.484;49.488;2023-03-17T07:42:12;9.89;48.22
65369;HTU21D;51970;53.484;49.488;2023-03-17T07:45:20;9.82;47.86
65369;HTU21D;51970;53.484;49.488;2023-03-17T07:48:21;10.04;48.15
65369;HTU21D;51970;53.484;49.488;2023-03-17T07:51:20;10.38;47.23
65369;HTU21D;51970;53.484;49.488;2023-03-17T07:54:23;10.51;46.44
65369;HTU21D;51970;53.484;49.488;2023-03-17T07:57:11;10.62;46.38
65369;HTU21D;51970;53.484;49.488;2023-03-17T07:59:56;10.46;46.65
65369;HTU21D;51970;53.484;49.488;2023-03-17T08:02:46;10.48;46.64
65369;HTU21D;51970;53.484;49.488;2023-03-17T08:05:38;10.50;46.37
65369;HTU21D;51970;53.484;49.488;2023-03-17T08:08:33;10.63;46.90
65369;HTU21D;51970;53.484;49.488;2023-03-17T08:11:08;10.40;47.34
65369;HTU21D;51970;53.484;49.488;2023-03-17T08:13:37;10.24;47.63
65369;HTU21D;51970;53.484;49.488;2023-03-17T08:16:12;10.50;47.47
65369;HTU21D;51970;53.484;49.488;2023-03-17T08:19:05;10.77;46.79
65369;HTU21D;51970;53.484;49.488;2023-03-17T08:21:58;10.68;46.39
65369;HTU21D;51970;53.484;49.488;2023-03-17T08:24:35;10.74;46.22
65369;HTU21D;51970;53.484;49.488;2023-03-17T08:27:50;10.97;45.83
65369;HTU21D;51970;53.484;49.488;2023-03-17T08:31:12;11.03;46.02
65369;HTU21D;51970;53.484;49.488;2023-03-17T08:33:52;11.11;45.58
65369;HTU21D;51970;53.484;49.488;2023-03-17T08:37:08;11.10;45.45
65369;HTU21D;51970;53.484;49.488;2023-03-17T08:39:40;11.19;45.64
65369;HTU21D;51970;53.484;49.488;2023-03-17T08:42:50;11.31;45.03
65369;HTU21D;51970;53.484;49.488;2023-03-17T08:45:59;11.32;45.32
65369;HTU21D;51970;53.484;49.488;2023-03-17T08:49:12;11.40;44.83
65369;HTU21D;51970;53.484;49.488;2023-03-17T08:51:39;11.23;44.76
65369;HTU21D;51970;53.484;49.488;2023-03-17T08:54:10;11.23;45.15
65369;HTU21D;51970;53.484;49.488;2023-03-17T08:56:40;11.16;45.49
65369;HTU21D;51970;53.484;49.488;2023-03-17T08:59:28;11.34;45.07
65369;HTU21D;51970;53.484;49.488;2023-03-17T09:02:01;11.46;45.45
65369;HTU21D;51970;53.484;49.488;2023-03-17T09:04:35;11.60;44.74
65369;HTU21D;51970;53.484;49.488;2023-03-17T09:07:58;11.57;45.40
65369;HTU21D;51970;53.484;49.488;2023-03-17T09:10:45;11.54;45.18
65369;HTU21D;51970;53.484;49.488;2023-03-17T09:13:39;11.38;46.18
65369;HTU21D;51970;53.484;49.488;2023-03-17T09:16:42;11.30;46.10
65369;HTU21D;51970;53.484;49.488;2023-03-17T09:19:18;11.25;46.71
65369;HTU21D;51970;53.484;49.488;2023-03-17T09:21:54;11.40;45.49
65369;HTU21D;51970;53.484;49.488;2023-03-17T09:24:32;11.58;45.49
65369;HTU21D;51970;53.484;49.488;2023-03-17T09:27:06;11.57;45.87
65369;HTU21D;51970;53.484;49.488;2023-03-17T09:29:49;11.56;45.90
65369;HTU21D;51970;53.484;49.488;2023-03-17T09:32:40;11.61;45.61
65369;HTU21D;51970;53.484;49.488;2023-03-17T09:35:42;11.73;45.45
65369;HTU21D;51970;53.484;49.488;2023-03-17T09:38:23;11.70;46.36
65369;HTU21D;51970;53.484;49.488;2023-03-17T09:46:09;11.63;46.82
65369;HTU21D;51970;53.484;49.488;2023-03-17T09:49:10;11.60;46.93
65369;HTU21D;51970;53.484;49.488;2023-03-17T09:52:34;11.40;47.31
65369;HTU21D;51970;53.484;49.488;2023-03-17T09:55:18;11.53;46.83
65369;HTU21D;51970;53.484;49.488;2023-03-17T09:59:04;11.67;46.67
65369;HTU21D;51970;53.484;49.488;2023-03-17T10:01:53;11.69;46.91
65369;HTU21D;51970;53.484;49.488;2023-03-17T10:04:47;11.43;46.66
65369;HTU21D;51970;53.484;49.488;2023-03-17T10:12:00;11.18;47.70
65369;HTU21D;51970;53.484;49.488;2023-03-17T10:15:31;11.02;47.97
65369;HTU21D;51970;53.484;49.488;2023-03-17T10:18:54;10.85;48.28
65369;HTU21D;51970;53.484;49.488;2023-03-17T10:26:36;11.00;48.47
65369;HTU21D;51970;53.484;49.488;2023-03-17T10:30:22;10.86;48.99
65369;HTU21D;51970;53.484;49.488;2023-03-17T10:33:50;10.99;48.43
65369;HTU21D;51970;53.484;49.488;2023-03-17T10:37:03;11.19;47.73
65369;HTU21D;51970;53.484;49.488;2023-03-17T10:39:59;11.37;47.24
65369;HTU21D;51970;53.484;49.488;2023-03-17T10:43:05;11.46;47.64
65369;HTU21D;51970;53.484;49.488;2023-03-17T10:46:43;11.61;47.16
65369;HTU21D;51970;53.484;49.488;2023-03-17T10:53:13;12.52;45.16
65369;HTU21D;51970;53.484;49.488;2023-03-17T10:56:31;12.60;44.87
65369;HTU21D;51970;53.484;49.488;2023-03-17T10:59:18;12.71;44.92
65369;HTU21D;51970;53.484;49.488;2023-03-17T11:06:13;12.79;45.47
65369;HTU21D;51970;53.484;49.488;2023-03-17T11:10:01;12.60;45.80
65369;HTU21D;51970;53.484;49.488;2023-03-17T11:13:28;12.63;46.08
65369;HTU21D;51970;53.484;49.488;2023-03-17T11:16:22;12.69;45.55
65369;HTU21D;51970;53.484;49.488;2023-03-17T11:19:15;12.71;46.32
65369;HTU21D;51970;53.484;49.488;2023-03-17T11:22:42;12.73;45.90
65369;HTU21D;51970;53.484;49.488;2023-03-17T11:25:44;12.93;45.96
65369;HTU21D;51970;53.484;49.488;2023-03-17T11:28:36;12.91;45.94
65369;HTU21D;51970;53.484;49.488;2023-03-17T11:31:25;12.99;45.70
65369;HTU21D;51970;53.484;49.488;2023-03-17T11:34:13;13.02;46.06
65369;HTU21D;51970;53.484;49.488;2023-03-17T11:37:39;12.93;46.44
65369;HTU21D;51970;53.484;49.488;2023-03-17T11:47:18;12.86;46.72
65369;HTU21D;51970;53.484;49.488;2023-03-17T11:49:54;12.75;46.99
65369;HTU21D;51970;53.484;49.488;2023-03-17T11:52:53;12.78;46.86
65369;HTU21D;51970;53.484;49.488;2023-03-17T11:55:50;12.88;47.44
65369;HTU21D;51970;53.484;49.488;2023-03-17T11:58:44;12.63;47.13
65369;HTU21D;51970;53.484;49.488;2023-03-17T12:07:35;12.77;47.63
65369;HTU21D;51970;53.484;49.488;2023-03-17T12:10:56;12.79;47.59
65369;HTU21D;51970;53.484;49.488;2023-03-17T12:17:10;12.84;47.13
65369;HTU21D;51970;53.484;49.488;2023-03-17T12:20:28;12.72;47.58
65369;HTU21D;51970;53.484;49.488;2023-03-17T12:26:34;12.62;48.00
65369;HTU21D;51970;53.484;49.488;2023-03-17T12:29:15;12.53;48.06
65369;HTU21D;51970;53.484;49.488;2023-03-17T12:32:24;12.41;48.24
65369;HTU21D;51970;53.484;49.488;2023-03-17T12:35:31;12.48;48.49
65369;HTU21D;51970;53.484;49.488;2023-03-17T12:38:40;12.41;48.56
65369;HTU21D;51970;53.484;49.488;2023-03-17T12:45:17;12.52;48.26
65369;HTU21D;51970;53.484;49.488;2023-03-17T12:54:49;12.14;49.72
65369;HTU21D;51970;53.484;49.488;2023-03-17T12:58:20;12.10;49.69
65369;HTU21D;51970;53.484;49.488;2023-03-17T13:01:29;12.02;49.94
65369;HTU21D;51970;53.484;49.488;2023-03-17T13:04:49;12.02;50.22
65369;HTU21D;51970;53.484;49.488;2023-03-17T13:08:00;12.05;50.44
65369;HTU21D;51970;53.484;49.488;2023-03-17T13:10:44;12.07;50.26
65369;HTU21D;51970;53.484;49.488;2023-03-17T13:13:35;11.84;51.11
65369;HTU21D;51970;53.484;49.488;2023-03-17T13:19:23;11.53;52.56
65369;HTU21D;51970;53.484;49.488;2023-03-17T13:24:54;11.47;52.77
65369;HTU21D;51970;53.484;49.488;2023-03-17T13:27:52;11.34;53.12
65369;HTU21D;51970;53.484;49.488;2023-03-17T13:36:41;11.43;53.11
65369;HTU21D;51970;53.484;49.488;2023-03-17T13:45:42;11.20;54.42
65369;HTU21D;51970;53.484;49.488;2023-03-17T13:48:34;11.13;54.65
65369;HTU21D;51970;53.484;49.488;2023-03-17T13:51:31;11.25;54.42
65369;HTU21D;51970;53.484;49.488;2023-03-17T13:54:39;11.13;54.89
65369;HTU21D;51970;53.484;49.488;2023-03-17T13:57:26;11.01;55.42
65369;HTU21D;51970;53.484;49.488;2023-03-17T14:02:41;10.87;56.14
65369;HTU21D;51970;53.484;49.488;2023-03-17T14:05:37;10.83;55.99
65369;HTU21D;51970;53.484;49.488;2023-03-17T14:08:27;10.75;56.28
65369;HTU21D;51970;53.484;49.488;2023-03-17T14:11:25;10.74;56.57
65369;HTU21D;51970;53.484;49.488;2023-03-17T14:17:29;10.48;57.60
65369;HTU21D;51970;53.484;49.488;2023-03-17T14:20:25;10.34;58.03
65369;HTU21D;51970;53.484;49.488;2023-03-17T14:23:01;10.23;58.52
65369;HTU21D;51970;53.484;49.488;2023-03-17T14:26:09;10.26;58.61
65369;HTU21D;51970;53.484;49.488;2023-03-17T14:29:01;10.29;58.61
65369;HTU21D;51970;53.484;49.488;2023-03-17T14:31:36;10.14;59.22
65369;HTU21D;51970;53.484;49.488;2023-03-17T14:34:21;10.00;59.67
65369;HTU21D;51970;53.484;49.488;2023-03-17T14:36:51;9.94;60.27
65369;HTU21D;51970;53.484;49.488;2023-03-17T14:39:50;9.71;60.86
65369;HTU21D;51970;53.484;49.488;2023-03-17T14:42:59;9.62;61.38
65369;HTU21D;51970;53.484;49.488;2023-03-17T14:46:42;9.60;61.57
65369;HTU21D;51970;53.484;49.488;2023-03-17T14:49:23;9.47;62.07
65369;HTU21D;51970;53.484;49.488;2023-03-17T14:56:23;9.39;62.82
65369;HTU21D;51970;53.484;49.488;2023-03-17T14:58:51;9.29;63.05
65369;HTU21D;51970;53.484;49.488;2023-03-17T15:01:31;9.21;63.37
65369;HTU21D;51970;53.484;49.488;2023-03-17T15:04:20;9.17;63.49
65369;HTU21D;51970;53.484;49.488;2023-03-17T15:07:03;9.12;63.73
65369;HTU21D;51970;53.484;49.488;2023-03-17T15:09:57;9.15;63.89
65369;HTU21D;51970;53.484;49.488;2023-03-17T15:12:30;9.19;63.79
65369;HTU21D;51970;53.484;49.488;2023-03-17T15:15:03;9.15;63.87
65369;HTU21D;51970;53.484;49.488;2023-03-17T15:18:04;9.09;64.12
65369;HTU21D;51970;53.484;49.488;2023-03-17T15:20:37;9.05;64.27
65369;HTU21D;51970;53.484;49.488;2023-03-17T15:23:15;9.09;64.49
65369;HTU21D;51970;53.484;49.488;2023-03-17T15:25:54;9.04;64.74
65369;HTU21D;51970;53.484;49.488;2023-03-17T15:28:39;8.98;65.02
65369;HTU21D;51970;53.484;49.488;2023-03-17T15:31:10;8.96;65.18
65369;HTU21D;51970;53.484;49.488;2023-03-17T15:33:44;9.01;65.17
65369;HTU21D;51970;53.484;49.488;2023-03-17T15:36:18;9.09;64.86
65369;HTU21D;51970;53.484;49.488;2023-03-17T15:38:44;9.07;64.97
65369;HTU21D;51970;53.484;49.488;2023-03-17T15:41:29;9.11;64.98
65369;HTU21D;51970;53.484;49.488;2023-03-17T15:43:57;9.07;65.00
65369;HTU21D;51970;53.484;49.488;2023-03-17T15:46:33;9.06;65.25
65369;HTU21D;51970;53.484;49.488;2023-03-17T15:49:00;9.02;65.36
65369;HTU21D;51970;53.484;49.488;2023-03-17T15:51:49;8.98;65.43
65369;HTU21D;51970;53.484;49.488;2023-03-17T15:54:58;9.01;65.41
65369;HTU21D;51970;53.484;49.488;2023-03-17T15:57:58;9.07;65.14
65369;HTU21D;51970;53.484;49.488;2023-03-17T16:00:30;8.98;65.32
65369;HTU21D;51970;53.484;49.488;2023-03-17T16:03:26;8.90;65.66
65369;HTU21D;51970;53.484;49.488;2023-03-17T16:06:00;8.87;65.89
65369;HTU21D;51970;53.484;49.488;2023-03-17T16:08:29;8.81;66.14
65369;HTU21D;51970;53.484;49.488;2023-03-17T16:10:56;8.82;66.20
65369;HTU21D;51970;53.484;49.488;2023-03-17T16:13:30;8.83;66.24
65369;HTU21D;51970;53.484;49.488;2023-03-17T16:15:59;8.88;66.20
65369;HTU21D;51970;53.484;49.488;2023-03-17T16:18:34;8.89;66.28
65369;HTU21D;51970;53.484;49.488;2023-03-17T16:21:27;8.81;66.25
65369;HTU21D;51970;53.484;49.488;2023-03-17T16:23:58;8.79;66.59
65369;HTU21D;51970;53.484;49.488;2023-03-17T16:26:31;8.81;66.58
65369;HTU21D;51970;53.484;49.488;2023-03-17T16:29:19;8.79;66.50
65369;HTU21D;51970;53.484;49.488;2023-03-17T16:32:10;8.73;66.50
65369;HTU21D;51970;53.484;49.488;2023-03-17T16:35:34;8.75;66.75
65369;HTU21D;51970;53.484;49.488;2023-03-17T16:38:10;8.80;66.57
65369;HTU21D;51970;53.484;49.488;2023-03-17T16:40:38;8.82;66.50
65369;HTU21D;51970;53.484;49.488;2023-03-17T16:43:29;8.79;66.55
65369;HTU21D;51970;53.484;49.488;2023-03-17T16:45:58;8.76;66.64
65369;HTU21D;51970;53.484;49.488;2023-03-17T16:48:26;8.75;66.51
65369;HTU21D;51970;53.484;49.488;2023-03-17T16:51:04;8.72;66.73
65369;HTU21D;51970;53.484;49.488;2023-03-17T16:53:40;8.77;66.91
65369;HTU21D;51970;53.484;49.488;2023-03-17T16:56:20;8.66;66.93
65369;HTU21D;51970;53.484;49.488;2023-03-17T16:59:14;8.62;67.08
65369;HTU21D;51970;53.484;49.488;2023-03-17T17:01:48;8.57;67.11
65369;HTU21D;51970;53.484;49.488;2023-03-17T17:04:14;8.52;67.36
65369;HTU21D;51970;53.484;49.488;2023-03-17T17:06:48;8.60;67.38
65369;HTU21D;51970;53.484;49.488;2023-03-17T17:09:16;8.53;67.41
65369;HTU21D;51970;53.484;49.488;2023-03-17T17:11:47;8.48;67.43
65369;HTU21D;51970;53.484;49.488;2023-03-17T17:14:19;8.43;67.67
65369;HTU21D;51970;53.484;49.488;2023-03-17T17:17:04;8.41;67.62
65369;HTU21D;51970;53.484;49.488;2023-03-17T17:19:33;8.45;67.84
65369;HTU21D;51970;53.484;49.488;2023-03-17T17:22:20;8.59;67.78
65369;HTU21D;51970;53.484;49.488;2023-03-17T17:24:51;8.60;67.24
65369;HTU21D;51970;53.484;49.488;2023-03-17T17:27:21;8.53;67.30
65369;HTU21D;51970;53.484;49.488;2023-03-17T17:29:56;8.58;67.50
65369;HTU21D;51970;53.484;49.488;2023-03-17T17:32:29;8.46;67.64
65369;HTU21D;51970;53.484;49.488;2023-03-17T17:35:07;8.42;67.94
65369;HTU21D;51970;53.484;49.488;2023-03-17T17:38:23;8.39;68.15
65369;HTU21D;51970;53.484;49.488;2023-03-17T17:41:16;8.42;67.98
65369;HTU21D;51970;53.484;49.488;2023-03-17T17:44:02;8.50;68.11
65369;HTU21D;51970;53.484;49.488;2023-03-17T17:46:37;8.41;68.08
65369;HTU21D;51970;53.484;49.488;2023-03-17T17:49:04;8.45;68.10
65369;HTU21D;51970;53.484;49.488;2023-03-17T17:51:34;8.42;67.94
65369;HTU21D;51970;53.484;49.488;2023-03-17T17:54:29;8.37;67.99
65369;HTU21D;51970;53.484;49.488;2023-03-17T17:57:42;8.31;68.34
65369;HTU21D;51970;53.484;49.488;2023-03-17T18:00:16;8.30;68.35
65369;HTU21D;51970;53.484;49.488;2023-03-17T18:03:21;8.26;68.33
65369;HTU21D;51970;53.484;49.488;2023-03-17T18:05:56;8.21;68.50
65369;HTU21D;51970;53.484;49.488;2023-03-17T18:08:35;8.28;68.62
65369;HTU21D;51970;53.484;49.488;2023-03-17T18:11:06;8.13;68.84
65369;HTU21D;51970;53.484;49.488;2023-03-17T18:13:57;8.22;68.78
65369;HTU21D;51970;53.484;49.488;2023-03-17T18:17:14;8.17;68.72
65369;HTU21D;51970;53.484;49.488;2023-03-17T18:20:15;8.14;68.82
65369;HTU21D;51970;53.484;49.488;2023-03-17T18:22:52;8.07;68.62
65369;HTU21D;51970;53.484;49.488;2023-03-17T18:25:38;8.07;69.00
65369;HTU21D;51970;53.484;49.488;2023-03-17T18:28:35;8.03;69.17
65369;HTU21D;51970;53.484;49.488;2023-03-17T18:34:33;8.00;69.52
65369;HTU21D;51970;53.484;49.488;2023-03-17T18:37:20;8.11;69.29
65369;HTU21D;51970;53.484;49.488;2023-03-17T18:40:00;8.09;69.16
65369;HTU21D;51970;53.484;49.488;2023-03-17T18:43:06;8.07;68.83